Time;durP1;ratioP1;P1;durP2;ratioP2;P2;SDS_P1;SDS_P2;PMS_P1;PMS_P2;Temp;Humidity;BMP_temperature;BMP_pressure;BME280_temperature;BME280_humidity;BME280_pressure;Samples;Min_cycle;Max_cycle;Signal;HPM_P1;HPM_P2
2022/11/17 00:00:31;;;;;;;1.90;1.70;;;17.80;89.10;;;18.35;51.59;97468.72;5012663;28;20041;-73
2022/11/17 00:03:03;;;;;;;3.08;2.03;;;17.80;89.10;;;18.34;51.25;97477.31;5026086;28;20053;-73
2022/11/17 00:05:29;;;;;;;3.72;2.10;;;17.70;88.90;;;18.37;51.55;97469.19;5020359;28;20460;-73
2022/11/17 00:07:55;;;;;;;3.00;2.13;;;17.70;89.20;;;18.37;51.69;97471.91;5028584;28;20046;-73
2022/11/17 00:10:21;;;;;;;4.15;2.00;;;17.80;89.50;;;18.32;51.81;97474.94;5028521;28;20045;-73
2022/11/17 00:15:32;;;;;;;3.92;2.17;;;17.70;89.10;;;18.32;51.37;97468.63;5026227;28;20058;-73
2022/11/17 00:23:45;;;;;;;4.20;1.95;;;17.70;88.90;;;18.30;51.90;97471.75;5027479;28;20049;-73
2022/11/17 00:26:26;;;;;;;5.45;2.35;;;17.70;89.50;;;18.34;51.79;97485.53;5014171;28;20038;-73
2022/11/17 00:28:53;;;;;;;7.13;2.10;;;17.70;89.70;;;18.34;51.42;97474.56;5016571;28;20038;-72
2022/11/17 00:34:05;;;;;;;1.90;1.70;;;17.70;89.10;;;18.32;51.19;97480.44;5028679;28;20508;-73
2022/11/17 00:36:52;;;;;;;2.63;2.00;;;17.70;88.80;;;18.30;51.05;97488.22;5024308;28;20367;-73
2022/11/17 00:39:22;;;;;;;4.38;2.83;;;17.70;88.80;;;18.27;51.84;97485.38;5010744;28;20125;-73
2022/11/17 00:41:48;;;;;;;4.72;2.25;;;17.70;89.40;;;18.31;51.79;97489.81;5028982;28;20578;-73
2022/11/17 00:44:14;;;;;;;2.65;1.83;;;17.70;89.50;;;18.30;51.45;97488.22;5022980;28;20139;-73
2022/11/17 00:46:40;;;;;;;2.50;1.80;;;17.70;89.10;;;18.30;51.41;97493.72;5013250;28;20057;-73
2022/11/17 00:49:07;;;;;;;4.47;2.47;;;17.70;89.00;;;18.28;51.26;97492.47;5025745;28;20124;-73
2022/11/17 00:51:34;;;;;;;3.75;2.15;;;17.70;88.80;;;18.27;51.21;97488.94;5025252;28;20048;-73
2022/11/17 00:54:00;;;;;;;2.58;1.90;;;17.70;88.80;;;18.31;51.59;97487.06;5011266;28;20041;-73
2022/11/17 00:56:26;;;;;;;1.33;1.23;;;17.60;89.00;;;18.34;51.51;97480.88;5027088;28;20045;-73
2022/11/17 00:58:53;;;;;;;1.67;1.58;;;17.70;89.30;;;18.31;51.70;97476.06;5027397;28;20073;-73
2022/11/17 01:01:19;;;;;;;1.60;1.50;;;17.70;89.30;;;18.27;51.28;97475.22;5022754;28;20048;-73
2022/11/17 01:03:45;;;;;;;2.17;1.38;;;17.70;88.90;;;18.27;51.21;97461.50;5031667;28;20064;-73
2022/11/17 01:06:17;;;;;;;2.30;1.45;;;17.70;88.80;;;18.26;51.28;97454.38;5029860;28;20038;-73
2022/11/17 01:08:43;;;;;;;2.90;1.70;;;17.70;88.80;;;18.28;51.23;97465.03;5047406;28;20140;-73
2022/11/17 01:11:10;;;;;;;2.35;1.77;;;17.70;88.70;;;18.30;51.49;97462.72;5031566;28;20958;-72
2022/11/17 01:13:37;;;;;;;1.70;1.60;;;17.70;89.30;;;18.27;51.79;97452.44;5032821;28;20043;-72
2022/11/17 01:16:25;;;;;;;1.90;1.33;;;17.70;89.40;;;18.26;51.63;97446.16;5028043;28;20393;-72
2022/11/17 01:18:52;;;;;;;2.45;1.73;;;17.70;90.00;;;18.27;51.29;97455.19;5013692;28;20181;-72
2022/11/17 01:21:23;;;;;;;5.15;2.10;;;17.70;88.90;;;18.26;51.05;97456.34;5029807;28;20037;-72
2022/11/17 01:23:51;;;;;;;2.67;1.80;;;17.70;88.60;;;18.22;51.25;97453.53;5013663;28;20033;-72
2022/11/17 01:26:19;;;;;;;2.95;1.33;;;17.70;88.60;;;18.25;51.31;97458.31;5029588;28;20044;-72
2022/11/17 01:28:46;;;;;;;5.38;1.95;;;17.70;88.90;;;18.25;51.51;97449.28;5029850;28;20061;-72
2022/11/17 01:31:15;;;;;;;3.35;1.73;;;17.70;89.10;;;18.28;51.49;97454.03;5030577;28;20042;-72
2022/11/17 01:33:41;;;;;;;3.17;1.60;;;17.70;89.20;;;18.27;51.11;97450.50;5026739;28;20037;-72
2022/11/17 01:36:14;;;;;;;1.70;1.60;;;17.70;88.70;;;18.29;51.07;97455.63;5029309;28;20034;-72
2022/11/17 01:38:40;;;;;;;1.42;1.27;;;17.70;88.60;;;18.26;51.01;97457.13;5027572;28;20046;-72
2022/11/17 01:41:19;;;;;;;3.85;1.60;;;17.70;88.50;;;18.25;50.98;97454.75;5023907;28;20042;-72
2022/11/17 01:43:53;;;;;;;2.05;1.50;;;17.70;88.60;;;18.23;51.53;97455.91;5020835;28;20048;-72
2022/11/17 01:46:30;;;;;;;2.03;1.90;;;17.70;89.00;;;18.22;51.41;97445.28;5030095;28;20374;-72
2022/11/17 01:49:04;;;;;;;4.47;1.67;;;17.70;89.00;;;18.23;51.30;97444.13;5032632;28;20049;-72
2022/11/17 01:51:32;;;;;;;1.58;1.42;;;17.60;88.80;;;18.26;51.14;97459.09;5016255;28;20048;-72
2022/11/17 01:53:58;;;;;;;1.88;1.38;;;17.70;88.70;;;18.26;51.13;97464.56;5032223;28;20381;-73
2022/11/17 01:56:29;;;;;;;2.60;1.70;;;17.60;88.50;;;18.21;51.12;97471.91;5016392;28;20048;-73
2022/11/17 01:59:09;;;;;;;2.63;1.50;;;17.60;88.50;;;18.21;51.42;97469.19;5028335;28;20073;-73
2022/11/17 02:01:54;;;;;;;2.47;1.77;;;17.60;89.00;;;18.27;51.46;97474.38;5003239;28;20457;-72
2022/11/17 02:04:48;;;;;;;4.55;2.22;;;17.70;89.10;;;18.25;51.28;97463.00;5029895;28;20505;-72
2022/11/17 02:07:30;;;;;;;1.67;1.30;;;17.60;88.70;;;18.24;51.06;97459.44;5045855;28;20041;-72
2022/11/17 02:09:56;;;;;;;3.08;1.40;;;17.70;88.50;;;18.19;51.14;97460.53;5014851;28;20401;-72
2022/11/17 02:12:24;;;;;;;1.55;1.45;;;17.60;88.40;;;18.22;51.03;97467.25;5033877;28;20474;-72
2022/11/17 02:14:51;;;;;;;1.75;1.60;;;17.60;88.40;;;18.22;51.25;97467.25;5032954;28;20049;-72
2022/11/17 02:17:17;;;;;;;2.20;1.40;;;17.70;88.70;;;18.22;51.55;97459.03;5027768;28;20080;-72
2022/11/17 02:19:44;;;;;;;2.10;1.35;;;17.70;88.90;;;18.23;51.57;97449.63;5014003;28;20128;-72
2022/11/17 02:22:49;;;;;;;2.38;1.58;;;17.60;89.00;;;18.16;51.30;97439.25;5016947;28;20065;-72
2022/11/17 02:25:51;;;;;;;1.13;1.02;;;17.60;88.60;;;18.19;51.11;97430.34;5028503;28;20045;-72
2022/11/17 02:28:23;;;;;;;1.38;0.95;;;17.60;88.50;;;18.17;51.20;97427.16;5031075;28;20041;-72
2022/11/17 02:31:15;;;;;;;2.17;1.40;;;17.70;88.30;;;18.24;51.31;97429.25;5030118;28;20462;-72
2022/11/17 02:34:21;;;;;;;1.13;1.02;;;17.70;88.60;;;18.27;51.38;97425.81;5028725;28;20029;-72
2022/11/17 02:37:21;;;;;;;1.27;1.17;;;17.60;88.80;;;18.27;50.99;97420.31;5029328;28;20046;-72
2022/11/17 02:40:23;;;;;;;2.55;1.70;;;17.60;88.60;;;18.29;50.95;97411.72;5034937;28;20054;-72
2022/11/17 02:45:49;;;;;;;;;;;17.60;88.50;;;18.34;50.97;97439.69;5027165;28;20038;-72
2022/11/17 02:48:24;;;;;;;2.13;1.17;;;17.60;88.50;;;18.38;50.95;97434.28;5029710;28;20419;-72
2022/11/17 02:50:51;;;;;;;1.35;1.10;;;17.70;89.60;;;18.40;51.04;97441.00;5030201;28;20042;-72
2022/11/17 02:53:17;;;;;;;4.45;1.77;;;17.70;89.00;;;18.40;50.83;97429.22;5032811;28;20045;-72
2022/11/17 02:55:51;;;;;;;1.48;1.38;;;17.70;88.70;;;18.42;50.75;97433.19;5011758;28;20554;-72
2022/11/17 02:58:17;;;;;;;1.95;1.63;;;17.70;88.80;;;18.46;50.62;97433.28;5027921;28;20068;-72
2022/11/17 03:01:04;;;;;;;4.60;1.67;;;17.70;88.70;;;18.50;50.50;97447.88;5031185;28;20042;-72
2022/11/17 03:04:04;;;;;;;2.05;1.30;;;17.70;88.50;;;18.53;50.74;97444.41;5029617;28;20077;-72
2022/11/17 03:06:36;;;;;;;1.35;1.30;;;17.70;88.80;;;18.55;50.91;97449.56;5044566;28;20092;-72
2022/11/17 03:09:17;;;;;;;2.38;1.77;;;17.70;89.00;;;18.62;50.51;97460.69;5030149;28;20428;-72
2022/11/17 03:11:46;;;;;;;1.30;1.17;;;17.80;88.60;;;18.62;50.42;97456.00;5030318;28;20045;-72
2022/11/17 03:14:41;;;;;;;1.25;1.10;;;17.80;88.50;;;18.60;50.59;97454.78;5030525;28;20511;-73
2022/11/17 03:17:25;;;;;;;1.38;1.27;;;17.80;88.40;;;18.64;50.23;97463.88;5027577;28;20045;-72
2022/11/17 03:20:11;;;;;;;1.40;1.17;;;17.80;88.40;;;18.70;50.57;97458.88;5027815;28;20061;-72
2022/11/17 03:23:01;;;;;;;2.38;1.17;;;17.90;88.80;;;18.68;50.71;97455.72;5041828;28;20429;-72
2022/11/17 03:25:27;;;;;;;1.27;1.00;;;17.80;88.70;;;18.71;50.47;97458.53;5028800;28;20053;-72
2022/11/17 03:27:57;;;;;;;1.02;0.85;;;17.90;88.80;;;18.73;50.49;97456.22;5011821;28;20046;-72
2022/11/17 03:30:24;;;;;;;1.30;1.15;;;17.90;88.50;;;18.75;50.42;97450.34;5027397;28;20422;-72
2022/11/17 03:33:01;;;;;;;2.63;1.58;;;18.00;88.70;;;18.79;50.24;97451.25;5028952;28;20042;-72
2022/11/17 03:35:28;;;;;;;1.30;1.20;;;17.90;88.50;;;18.80;50.25;97447.34;5028373;28;20067;-72
2022/11/17 03:37:58;;;;;;;1.42;0.90;;;17.90;88.70;;;18.84;50.40;97442.75;5028450;28;20123;-72
2022/11/17 03:40:27;;;;;;;1.40;1.17;;;17.90;88.90;;;18.85;50.38;97445.13;5027774;28;20092;-72
2022/11/17 03:42:57;;;;;;;1.25;1.15;;;18.00;88.90;;;18.91;50.19;97455.84;5014064;28;20374;-72
2022/11/17 03:45:31;;;;;;;1.70;1.52;;;18.00;88.80;;;18.92;50.02;97454.66;5011993;28;20046;-72
2022/11/17 03:48:28;;;;;;;0.65;0.60;;;18.00;88.70;;;18.95;49.80;97454.72;5017101;28;20046;-72
2022/11/17 03:51:11;;;;;;;0.90;0.90;;;18.00;88.70;;;19.03;49.85;97455.66;5031712;28;20116;-72
2022/11/17 03:53:37;;;;;;;1.90;1.17;;;18.00;88.60;;;18.98;50.12;97459.53;5015126;28;20038;-72
2022/11/17 03:56:27;;;;;;;0.75;0.75;;;18.00;88.40;;;18.97;49.87;97446.94;5026978;28;20500;-72
2022/11/17 03:59:02;;;;;;;0.85;0.80;;;18.10;88.10;;;18.99;49.83;97449.31;5028106;28;20461;-72
2022/11/17 04:01:28;;;;;;;0.90;0.90;;;18.10;88.10;;;19.01;49.48;97453.31;5014607;28;20456;-72
2022/11/17 04:03:55;;;;;;;1.15;0.95;;;18.10;88.10;;;19.05;49.73;97456.09;5010421;28;20062;-72
2022/11/17 04:06:21;;;;;;;2.20;1.00;;;18.20;88.20;;;19.12;49.67;97442.50;5031898;28;20045;-72
2022/11/17 04:08:47;;;;;;;1.40;1.17;;;18.20;88.20;;;19.08;49.72;97444.38;5032889;28;20168;-72
2022/11/17 04:16:42;;;;;;;1.60;1.13;;;18.20;88.00;;;19.15;49.27;97446.50;5027698;28;20080;-73
2022/11/17 04:19:08;;;;;;;0.82;0.82;;;18.20;88.00;;;19.17;49.33;97447.72;5028906;28;20040;-73
2022/11/17 04:21:34;;;;;;;1.25;0.98;;;18.20;88.20;;;19.22;49.43;97446.63;5028955;28;20042;-73
2022/11/17 04:24:01;;;;;;;0.90;0.90;;;18.10;88.10;;;19.23;49.39;97454.53;5026068;28;20095;-73
2022/11/17 04:29:11;;;;;;;1.23;0.75;;;18.20;88.20;;;19.25;49.21;97454.94;5025014;28;20045;-73
2022/11/17 04:31:37;;;;;;;0.77;0.70;;;18.20;88.00;;;19.29;48.89;97447.56;5021942;28;20530;-73
2022/11/17 04:34:04;;;;;;;0.98;0.80;;;18.20;87.90;;;19.30;49.01;97442.84;5027100;28;20087;-74
2022/11/17 04:36:43;;;;;;;0.90;0.70;;;18.20;87.80;;;19.23;49.12;97457.28;5009377;28;20026;-73
2022/11/17 04:39:11;;;;;;;0.75;0.60;;;18.30;88.20;;;19.33;49.21;97449.56;5027367;28;20512;-73
2022/11/17 04:41:53;;;;;;;0.60;0.60;;;18.30;88.30;;;19.37;49.06;97444.94;5027308;28;20045;-73
2022/11/17 04:44:25;;;;;;;0.95;0.80;;;18.30;88.10;;;19.39;48.78;97448.94;5023679;28;20404;-73
2022/11/17 04:46:51;;;;;;;;;;;18.30;87.80;;;19.40;48.56;97452.47;5028505;28;20041;-72
2022/11/17 04:49:18;;;;;;;1.58;0.90;;;18.30;87.60;;;19.38;48.83;97458.31;5028898;28;20349;-73
2022/11/17 04:51:44;;;;;;;0.75;0.73;;;18.40;87.70;;;19.39;48.97;97456.38;5024034;28;20049;-73
2022/11/17 04:54:11;;;;;;;1.17;1.00;;;18.40;87.80;;;19.43;48.99;97458.03;5026275;28;20038;-73
2022/11/17 04:56:37;;;;;;;0.50;0.50;;;18.40;88.00;;;19.40;49.10;97450.50;5015119;28;20080;-73
2022/11/17 04:59:03;;;;;;;0.98;0.90;;;18.40;88.10;;;19.41;49.19;97460.38;5023294;28;20148;-73
2022/11/17 05:01:29;;;;;;;0.70;0.70;;;18.40;87.90;;;19.44;48.75;97456.88;5026917;28;20045;-73
2022/11/17 05:04:01;;;;;;;0.50;0.50;;;18.40;87.40;;;19.40;48.89;97453.25;5027910;28;20400;-73
2022/11/17 05:06:32;;;;;;;0.50;0.50;;;18.40;87.50;;;19.45;48.64;97452.16;5009677;28;20037;-73
2022/11/17 05:09:00;;;;;;;0.93;0.50;;;18.40;87.40;;;19.43;48.89;97463.53;5025533;28;20049;-73
2022/11/17 05:14:14;;;;;;;1.13;0.85;;;18.40;87.90;;;19.44;48.93;97454.13;5013106;28;20627;-72
2022/11/17 05:19:26;;;;;;;1.00;0.60;;;18.50;87.50;;;19.45;48.66;97463.94;5027746;28;20049;-73
2022/11/17 05:21:52;;;;;;;0.85;0.82;;;18.50;87.20;;;19.45;48.35;97463.16;5025359;28;20532;-73
2022/11/17 05:24:19;;;;;;;0.57;0.57;;;18.50;87.10;;;19.46;48.52;97467.50;5011087;28;20033;-73
2022/11/17 05:26:46;;;;;;;0.93;0.60;;;18.50;87.50;;;19.45;48.94;97471.41;5026741;28;20037;-73
2022/11/17 05:29:14;;;;;;;0.80;0.70;;;18.40;87.60;;;19.47;48.93;97474.59;5024021;28;20050;-74
2022/11/17 05:31:40;;;;;;;1.98;0.85;;;18.40;87.80;;;19.43;48.84;97477.25;5011890;28;20091;-73
2022/11/17 05:34:08;;;;;;;3.40;0.93;;;18.50;87.50;;;19.49;48.57;97475.03;5009329;28;20048;-73
2022/11/17 05:36:34;;;;;;;0.73;0.70;;;18.50;87.40;;;19.48;48.69;97481.69;5010188;28;20080;-73
2022/11/17 05:39:00;;;;;;;3.47;0.60;;;18.50;87.30;;;19.47;48.46;97469.88;5026431;28;20046;-73
2022/11/17 05:41:27;;;;;;;1.85;0.70;;;18.50;87.20;;;19.47;48.90;97463.59;5011034;28;20045;-73
2022/11/17 05:43:57;;;;;;;1.02;0.70;;;18.50;87.30;;;19.46;48.85;97457.31;5009417;28;20046;-73
2022/11/17 05:46:23;;;;;;;0.68;0.68;;;18.50;87.30;;;19.48;48.49;97454.19;5030428;28;20117;-73
2022/11/17 05:48:49;;;;;;;0.90;0.82;;;18.50;88.00;;;19.43;48.58;97459.97;5030840;28;20042;-73
2022/11/17 05:51:16;;;;;;;0.68;0.57;;;18.50;87.10;;;19.47;48.42;97466.34;5015731;28;20056;-73
2022/11/17 05:53:42;;;;;;;1.17;0.85;;;18.50;86.90;;;19.50;48.54;97471.13;5018739;28;20041;-73
2022/11/17 05:56:38;;;;;;;0.85;0.85;;;18.60;87.10;;;19.49;48.25;97473.06;5036121;28;20400;-73
2022/11/17 05:59:45;;;;;;;1.10;0.93;;;18.60;87.20;;;19.51;48.34;97480.94;5028738;28;20041;-73
2022/11/17 06:02:43;;;;;;;1.10;0.88;;;18.50;87.00;;;19.50;48.70;97493.13;5030258;28;20057;-74
2022/11/17 06:05:09;;;;;;;0.63;0.63;;;18.60;87.30;;;19.51;48.70;97484.50;5019584;28;20581;-73
2022/11/17 06:07:35;;;;;;;0.88;0.68;;;18.50;87.50;;;19.49;48.79;97488.78;5012189;28;20046;-73
2022/11/17 06:10:02;;;;;;;0.70;0.60;;;18.50;87.60;;;19.50;48.62;97490.38;5030568;28;20060;-73
2022/11/17 06:12:28;;;;;;;1.15;0.80;;;18.50;87.60;;;19.48;48.70;97498.19;5013818;28;20096;-76
2022/11/17 06:14:57;;;;;;;0.65;0.65;;;18.50;87.40;;;19.55;48.45;97503.81;5014703;28;20366;-71
2022/11/17 06:17:30;;;;;;;0.30;0.30;;;18.50;87.40;;;19.51;48.62;97516.69;5029780;28;20042;-72
2022/11/17 06:20:23;;;;;;;1.05;1.05;;;18.60;87.40;;;19.53;50.40;97508.88;4998188;28;20567;-77
2022/11/17 06:22:49;;;;;;;2.20;1.08;;;18.50;89.40;;;19.53;51.87;97509.66;5024836;28;20079;-77
2022/11/17 06:25:17;;;;;;;3.92;1.13;;;18.50;90.70;;;19.54;51.71;97505.00;5015177;28;20033;-77
2022/11/17 06:27:43;;;;;;;2.65;1.15;;;18.60;90.60;;;19.53;52.83;97514.38;5000446;28;20033;-77
2022/11/17 06:30:10;;;;;;;3.53;1.20;;;18.60;91.10;;;19.58;52.16;97508.59;5015437;28;20029;-77
2022/11/17 06:32:37;;;;;;;2.70;1.20;;;18.70;90.80;;;19.59;51.95;97517.63;5032642;28;20045;-74
2022/11/17 06:35:05;;;;;;;5.43;1.15;;;18.70;90.60;;;19.55;51.81;97528.56;5011607;28;20053;-74
2022/11/17 06:37:31;;;;;;;0.93;0.93;;;18.90;90.30;;;19.54;52.04;97535.25;4995812;28;20049;-74
2022/11/17 06:39:57;;;;;;;1.45;0.93;;;18.70;90.30;;;19.62;51.50;97534.22;5024260;28;20611;-74
2022/11/17 06:43:02;;;;;;;1.15;1.00;;;18.70;90.40;;;19.58;51.68;97540.81;5026229;28;20045;-74
2022/11/17 06:45:09;;;;;;;7.97;1.88;;;18.70;90.30;;;19.59;51.40;97536.88;5019938;28;20037;-73
2022/11/17 06:47:35;;;;;;;4.78;1.58;;;18.70;90.20;;;19.54;51.19;97535.25;5019786;28;20484;-73
2022/11/17 06:50:02;;;;;;;3.58;1.15;;;18.70;90.20;;;19.58;50.98;97532.56;5026017;28;20281;-73
2022/11/17 06:52:29;;;;;;;4.28;0.90;;;18.70;90.00;;;19.58;50.75;97533.34;5022389;28;20552;-74
2022/11/17 06:54:54;;;;;;;1.85;0.73;;;18.70;90.00;;;19.59;50.74;97523.13;5023919;28;20051;-74
2022/11/17 06:57:21;;;;;;;3.80;0.75;;;18.70;90.00;;;19.57;50.63;97531.75;5023843;28;20501;-74
2022/11/17 06:59:47;;;;;;;10.15;1.85;;;18.70;89.80;;;19.57;50.69;97528.22;5025514;28;20053;-73
2022/11/17 07:02:13;;;;;;;10.95;1.38;;;18.70;89.70;;;19.52;50.60;97532.84;5021231;28;20046;-73
2022/11/17 07:04:39;;;;;;;1.60;0.57;;;18.70;89.50;;;19.55;50.37;97536.81;5006210;28;20622;-73
2022/11/17 07:07:05;;;;;;;2.47;1.10;;;18.70;89.30;;;19.54;50.65;97546.25;5027501;28;20096;-73
2022/11/17 07:09:31;;;;;;;6.90;0.85;;;18.70;89.10;;;19.58;50.16;97538.06;5026428;28;20038;-73
2022/11/17 07:11:57;;;;;;;7.13;1.65;;;18.70;89.30;;;19.58;50.41;97549.06;5024252;28;20085;-73
2022/11/17 07:14:23;;;;;;;1.15;0.80;;;18.70;89.10;;;19.58;50.22;97535.31;5025279;28;20038;-73
2022/11/17 07:16:49;;;;;;;4.82;0.93;;;18.70;89.10;;;19.58;50.30;97538.84;5042733;28;20037;-73
2022/11/17 07:19:15;;;;;;;1.63;1.10;;;18.70;88.80;;;19.58;49.98;97536.09;5006471;28;20559;-73
2022/11/17 07:21:42;;;;;;;4.95;1.38;;;18.70;88.70;;;19.57;49.81;97540.00;5025444;28;20052;-73
2022/11/17 07:24:08;;;;;;;0.93;0.68;;;18.80;88.70;;;19.57;49.73;97551.00;5021263;28;20566;-73
2022/11/17 07:26:35;;;;;;;4.35;0.52;;;18.80;88.50;;;19.57;50.13;97544.72;5024090;28;20041;-73
2022/11/17 07:29:01;;;;;;;9.23;1.88;;;18.70;88.80;;;19.54;50.04;97557.25;5009584;28;20091;-73
2022/11/17 07:31:27;;;;;;;0.77;0.60;;;18.70;88.80;;;19.53;50.02;97552.88;5041435;28;20045;-73
2022/11/17 07:33:53;;;;;;;1.75;0.93;;;18.60;88.70;;;19.53;49.64;97547.38;5009556;28;20042;-73
2022/11/17 07:36:19;;;;;;;2.38;0.93;;;18.60;88.70;;;19.52;49.67;97548.56;5040380;28;20508;-73
2022/11/17 07:38:46;;;;;;;1.30;0.52;;;18.70;88.80;;;19.55;49.60;97552.53;5027175;28;20045;-73
2022/11/17 07:41:13;;;;;;;0.88;0.88;;;18.70;88.40;;;19.55;50.00;97547.81;5025070;28;20048;-73
2022/11/17 07:43:39;;;;;;;1.27;0.77;;;18.70;88.70;;;19.57;49.80;97556.50;5009479;28;20083;-73
2022/11/17 07:46:11;;;;;;;1.38;1.27;;;18.70;88.50;;;19.57;49.38;97561.22;5008805;28;20531;-73
2022/11/17 07:48:40;;;;;;;1.70;0.90;;;18.70;88.50;;;19.56;49.55;97563.16;5021746;28;20235;-73
2022/11/17 07:51:06;;;;;;;5.63;0.95;;;18.70;88.40;;;19.56;49.35;97559.63;5023498;28;20041;-73
2022/11/17 07:53:34;;;;;;;1.85;0.50;;;18.70;88.20;;;19.59;49.20;97554.22;5009014;28;20065;-73
2022/11/17 07:56:08;;;;;;;2.55;0.70;;;18.70;88.10;;;19.59;49.32;97554.22;5022507;28;20072;-73
2022/11/17 07:58:37;;;;;;;0.70;0.70;;;18.80;87.90;;;19.57;49.67;97561.22;5013863;28;20128;-73
2022/11/17 08:01:08;;;;;;;4.70;1.08;;;18.80;88.20;;;19.62;49.26;97553.47;5023545;28;20042;-73
2022/11/17 08:03:34;;;;;;;0.73;0.73;;;18.80;88.00;;;19.55;49.36;97547.03;5013412;28;20092;-73
2022/11/17 08:06:04;;;;;;;1.08;0.95;;;18.70;88.00;;;19.57;49.27;97547.47;5021431;28;20053;-73
2022/11/17 08:08:30;;;;;;;0.57;0.57;;;18.70;88.20;;;19.52;49.55;97546.59;4992912;28;20115;-73
2022/11/17 08:11:10;;;;;;;2.00;0.80;;;18.70;88.10;;;19.59;49.20;97547.88;5007917;28;20053;-73
2022/11/17 08:13:38;;;;;;;1.67;1.08;;;18.70;87.90;;;19.56;49.29;97549.41;5024254;28;20499;-73
2022/11/17 08:16:05;;;;;;;1.63;0.70;;;18.70;87.90;;;19.49;49.64;97549.28;5018249;28;20038;-73
2022/11/17 08:18:31;;;;;;;4.63;1.65;;;18.70;87.70;;;19.51;49.57;97546.94;5008367;28;20095;-73
2022/11/17 08:21:15;;;;;;;1.20;0.75;;;18.80;87.80;;;19.56;49.40;97537.63;5024401;28;20037;-73
2022/11/17 08:23:42;;;;;;;2.22;1.58;;;18.80;87.50;;;19.58;49.08;97549.06;5006609;28;20041;-73
2022/11/17 08:26:10;;;;;;;0.95;0.50;;;18.80;87.50;;;19.59;49.03;97554.22;5024901;28;20046;-73
2022/11/17 08:28:36;;;;;;;1.33;0.80;;;18.80;87.60;;;19.61;49.09;97560.13;5023012;28;20045;-73
2022/11/17 08:31:03;;;;;;;1.33;0.73;;;18.70;87.50;;;19.62;48.88;97560.94;5008477;28;20421;-73
2022/11/17 08:33:29;;;;;;;2.83;0.82;;;18.80;87.60;;;19.64;48.87;97558.59;5008504;28;20042;-73
2022/11/17 08:35:57;;;;;;;1.38;0.60;;;18.80;87.50;;;19.61;48.86;97562.06;5022221;28;20049;-73
2022/11/17 08:38:27;;;;;;;1.92;1.00;;;18.90;87.30;;;19.63;48.66;97552.31;5026766;28;20044;-73
2022/11/17 08:41:07;;;;;;;0.57;0.57;;;18.90;87.10;;;19.64;48.81;97555.84;5023382;28;20405;-73
2022/11/17 08:43:33;;;;;;;0.98;0.65;;;18.80;88.10;;;19.61;48.91;97554.63;5004108;28;20120;-73
2022/11/17 08:46:01;;;;;;;1.38;0.77;;;18.80;87.00;;;19.61;48.81;97557.38;5024270;28;20468;-73
2022/11/17 08:48:28;;;;;;;0.45;0.45;;;18.90;87.30;;;19.60;49.00;97571.50;5024258;28;20045;-73
2022/11/17 08:50:57;;;;;;;2.13;0.70;;;18.90;87.20;;;19.56;49.02;97563.16;5024939;28;20042;-73
2022/11/17 08:53:23;;;;;;;0.98;0.88;;;18.90;87.30;;;19.53;49.00;97566.63;5023437;28;20033;-73
2022/11/17 08:55:50;;;;;;;1.05;0.68;;;18.90;87.00;;;19.55;48.71;97572.59;5024654;28;20123;-73
2022/11/17 08:58:16;;;;;;;1.08;0.57;;;18.80;86.90;;;19.55;48.81;97572.59;5020819;28;20614;-73
2022/11/17 09:00:44;;;;;;;1.33;0.65;;;18.80;87.10;;;19.57;48.71;97570.28;5023534;28;20042;-73
2022/11/17 09:03:10;;;;;;;0.50;0.50;;;18.80;87.10;;;19.55;48.83;97574.53;5023004;28;20419;-73
2022/11/17 09:05:45;;;;;;;1.45;0.80;;;18.80;87.20;;;19.59;48.91;97576.22;5024294;28;20049;-73
2022/11/17 09:08:13;;;;;;;0.52;0.52;;;18.80;87.40;;;19.57;48.78;97574.97;5006387;28;20441;-73
2022/11/17 09:10:40;;;;;;;0.82;0.82;;;18.80;87.20;;;19.60;48.70;97577.00;5023368;28;20041;-73
2022/11/17 09:13:06;;;;;;;1.20;0.50;;;18.80;87.00;;;19.62;48.31;97569.97;5023087;28;20049;-73
2022/11/17 09:15:32;;;;;;;1.10;1.00;;;18.80;86.70;;;19.62;48.43;97567.22;5023056;28;20227;-73
2022/11/17 09:17:58;;;;;;;0.90;0.73;;;18.80;86.80;;;19.63;48.62;97563.31;5023853;28;20096;-73
2022/11/17 09:20:24;;;;;;;0.73;0.73;;;18.90;87.00;;;19.64;48.63;97566.84;5023393;28;20052;-73
2022/11/17 09:22:50;;;;;;;0.98;0.73;;;18.90;86.90;;;19.63;48.43;97568.81;5027889;28;20049;-73
2022/11/17 09:25:16;;;;;;;0.43;0.43;;;18.80;86.70;;;19.63;48.55;97574.31;5023985;28;20095;-73
2022/11/17 09:27:42;;;;;;;1.10;0.90;;;18.90;86.80;;;19.63;48.75;97576.25;5011746;28;20045;-73
2022/11/17 09:30:09;;;;;;;0.95;0.60;;;18.80;86.80;;;19.60;48.76;97579.75;5025214;28;20053;-73
2022/11/17 09:32:36;;;;;;;0.60;0.40;;;18.90;86.70;;;19.58;48.39;97585.59;5031260;28;20113;-73
2022/11/17 09:35:05;;;;;;;1.38;0.80;;;18.80;86.60;;;19.56;48.29;97581.63;5027636;28;20041;-73
2022/11/17 09:37:32;;;;;;;0.60;0.60;;;18.80;86.80;;;19.63;48.73;97584.53;5030871;28;20037;-73
2022/11/17 09:39:59;;;;;;;2.78;0.50;;;18.80;86.90;;;19.58;48.70;97580.09;5026603;28;20313;-73
2022/11/17 09:42:26;;;;;;;1.60;0.98;;;18.80;86.90;;;19.60;48.63;97574.25;4995518;28;20115;-73
2022/11/17 09:45:12;;;;;;;1.50;0.85;;;18.80;86.80;;;19.61;48.24;97573.88;5016638;28;20049;-73
2022/11/17 09:47:51;;;;;;;1.15;1.02;;;18.80;86.70;;;19.57;48.52;97566.72;5013002;28;20037;-73
2022/11/17 09:50:40;;;;;;;1.20;0.73;;;18.80;86.60;;;19.59;48.36;97567.97;5026400;28;20450;-73
2022/11/17 09:53:18;;;;;;;0.73;0.50;;;18.80;86.80;;;19.54;48.54;97573.75;5010595;28;20041;-73
2022/11/17 09:56:04;;;;;;;1.20;0.68;;;18.80;86.70;;;19.55;48.67;97572.59;5028510;28;20037;-73
2022/11/17 09:59:05;;;;;;;0.85;0.68;;;18.80;86.70;;;19.51;48.76;97568.94;5011179;28;20045;-73
2022/11/17 10:01:31;;;;;;;1.42;0.70;;;18.80;86.80;;;19.51;48.62;97566.19;5016454;28;20061;-73
2022/11/17 10:03:58;;;;;;;1.23;0.68;;;18.80;86.70;;;19.48;48.40;97567.72;5008398;28;20049;-73
2022/11/17 10:06:27;;;;;;;0.40;0.40;;;18.80;86.50;;;19.48;48.83;97572.44;5012616;28;20064;-73
2022/11/17 10:09:34;;;;;;;0.73;0.50;;;18.80;86.60;;;19.49;48.49;97576.78;5025798;28;20120;-73
2022/11/17 10:12:17;;;;;;;2.50;0.90;;;18.80;86.70;;;19.51;48.64;97571.69;5027057;28;20041;-73
2022/11/17 10:14:43;;;;;;;0.73;0.73;;;18.80;86.60;;;19.47;48.59;97573.59;5014287;28;20076;-73
2022/11/17 10:17:09;;;;;;;0.93;0.60;;;18.80;86.30;;;19.50;48.65;97567.38;5026250;28;20558;-73
2022/11/17 10:19:39;;;;;;;0.65;0.65;;;18.80;86.30;;;19.50;48.36;97572.88;5009371;28;20049;-73
2022/11/17 10:22:05;;;;;;;0.52;0.47;;;18.80;86.30;;;19.47;48.54;97570.84;5023345;28;20052;-73
2022/11/17 10:24:33;;;;;;;0.50;0.50;;;18.80;86.30;;;19.48;48.27;97575.19;5026406;28;20544;-73
2022/11/17 10:27:05;;;;;;;1.17;0.60;;;18.70;86.40;;;19.47;48.50;97576.34;5027772;28;20049;-73
2022/11/17 10:29:31;;;;;;;0.60;0.60;;;18.80;86.60;;;19.49;48.52;97568.53;5011404;28;20053;-73
2022/11/17 10:32:01;;;;;;;1.13;0.85;;;18.80;86.50;;;19.54;48.26;97579.25;5010434;28;20050;-73
2022/11/17 10:34:38;;;;;;;2.13;0.70;;;18.80;86.30;;;19.55;48.12;97575.34;5009218;28;20037;-73
2022/11/17 10:37:16;;;;;;;4.13;0.80;;;18.70;86.20;;;19.51;48.22;97588.19;5024245;28;20511;-73
2022/11/17 10:39:43;;;;;;;0.82;0.60;;;18.70;86.30;;;19.49;48.22;97588.59;5026332;28;20041;-73
2022/11/17 10:42:27;;;;;;;0.47;0.47;;;18.70;87.00;;;19.44;48.40;97585.34;5026603;28;20492;-73
2022/11/17 10:44:58;;;;;;;0.52;0.50;;;18.80;86.40;;;19.43;48.56;97589.22;5006951;28;20111;-73
2022/11/17 10:47:31;;;;;;;1.55;1.15;;;18.70;86.20;;;19.46;48.36;97585.75;5026022;28;20046;-73
2022/11/17 10:50:21;;;;;;;1.77;1.10;;;18.70;86.50;;;19.48;48.17;97583.44;5010099;28;20465;-73
2022/11/17 10:52:48;;;;;;;0.35;0.35;;;18.70;86.30;;;19.43;48.14;97575.47;5006214;28;20128;-73
2022/11/17 10:55:26;;;;;;;3.10;0.70;;;18.70;86.20;;;19.46;48.40;97566.50;5025632;28;20042;-73
2022/11/17 10:58:06;;;;;;;0.60;0.60;;;18.80;86.30;;;19.50;48.42;97565.41;5011176;28;20073;-73
2022/11/17 11:00:36;;;;;;;0.57;0.57;;;18.70;86.40;;;19.47;48.18;97579.88;5024086;28;20049;-73
2022/11/17 11:03:16;;;;;;;0.77;0.55;;;18.80;86.10;;;19.47;48.25;97573.59;5023162;28;20049;-73
2022/11/17 11:06:23;;;;;;;0.98;0.80;;;18.70;86.10;;;19.47;48.18;97588.16;5013115;28;20068;-73